sensor_id;sensor_type;location;lat;lon;timestamp;temperature;humidity
43320;DHT22;28914;48.722;9.332;2024-02-23T00:01:33;10.20;75.70
43320;DHT22;28914;48.722;9.332;2024-02-23T00:06:53;10.20;76.00
43320;DHT22;28914;48.722;9.332;2024-02-23T00:12:12;10.20;76.00
43320;DHT22;28914;48.722;9.332;2024-02-23T00:17:33;10.20;76.20
43320;DHT22;28914;48.722;9.332;2024-02-23T00:22:52;10.20;76.10
43320;DHT22;28914;48.722;9.332;2024-02-23T00:28:12;10.30;76.00
43320;DHT22;28914;48.722;9.332;2024-02-23T00:33:31;10.30;75.90
43320;DHT22;28914;48.722;9.332;2024-02-23T00:38:51;10.30;76.00
43320;DHT22;28914;48.722;9.332;2024-02-23T00:44:10;10.30;75.90
43320;DHT22;28914;48.722;9.332;2024-02-23T00:49:29;10.30;76.10
43320;DHT22;28914;48.722;9.332;2024-02-23T00:54:48;10.30;76.20
43320;DHT22;28914;48.722;9.332;2024-02-23T01:00:08;10.30;76.10
43320;DHT22;28914;48.722;9.332;2024-02-23T01:05:28;10.40;76.10
43320;DHT22;28914;48.722;9.332;2024-02-23T01:10:47;10.40;76.70
43320;DHT22;28914;48.722;9.332;2024-02-23T01:16:06;10.40;76.00
43320;DHT22;28914;48.722;9.332;2024-02-23T01:21:25;10.40;75.80
43320;DHT22;28914;48.722;9.332;2024-02-23T01:26:45;10.40;75.90
43320;DHT22;28914;48.722;9.332;2024-02-23T01:32:04;10.40;76.10
43320;DHT22;28914;48.722;9.332;2024-02-23T01:37:23;10.30;76.10
43320;DHT22;28914;48.722;9.332;2024-02-23T01:42:43;10.30;76.10
43320;DHT22;28914;48.722;9.332;2024-02-23T01:48:02;10.30;76.10
43320;DHT22;28914;48.722;9.332;2024-02-23T01:53:22;10.20;76.00
43320;DHT22;28914;48.722;9.332;2024-02-23T01:58:41;10.10;76.00
43320;DHT22;28914;48.722;9.332;2024-02-23T02:04:01;10.10;76.20
43320;DHT22;28914;48.722;9.332;2024-02-23T02:09:20;10.00;76.00
43320;DHT22;28914;48.722;9.332;2024-02-23T02:14:39;9.90;76.00
43320;DHT22;28914;48.722;9.332;2024-02-23T02:20:02;9.80;76.00
43320;DHT22;28914;48.722;9.332;2024-02-23T02:25:23;9.60;76.00
43320;DHT22;28914;48.722;9.332;2024-02-23T02:30:42;9.50;76.30
43320;DHT22;28914;48.722;9.332;2024-02-23T02:36:01;9.40;76.10
43320;DHT22;28914;48.722;9.332;2024-02-23T02:41:23;9.30;76.30
43320;DHT22;28914;48.722;9.332;2024-02-23T02:46:43;9.30;76.60
43320;DHT22;28914;48.722;9.332;2024-02-23T02:52:02;9.30;76.70
43320;DHT22;28914;48.722;9.332;2024-02-23T02:57:21;9.20;76.70
43320;DHT22;28914;48.722;9.332;2024-02-23T03:02:40;9.20;76.70
43320;DHT22;28914;48.722;9.332;2024-02-23T03:07:59;9.20;76.90
43320;DHT22;28914;48.722;9.332;2024-02-23T03:13:19;9.20;76.80
43320;DHT22;28914;48.722;9.332;2024-02-23T03:18:38;9.20;77.00
43320;DHT22;28914;48.722;9.332;2024-02-23T03:23:58;9.20;77.70
43320;DHT22;28914;48.722;9.332;2024-02-23T03:29:17;9.10;77.00
43320;DHT22;28914;48.722;9.332;2024-02-23T03:34:36;9.20;77.00
43320;DHT22;28914;48.722;9.332;2024-02-23T03:39:56;9.10;76.90
43320;DHT22;28914;48.722;9.332;2024-02-23T03:45:15;9.10;77.50
43320;DHT22;28914;48.722;9.332;2024-02-23T03:50:34;9.10;77.40
43320;DHT22;28914;48.722;9.332;2024-02-23T03:55:53;9.10;77.50
43320;DHT22;28914;48.722;9.332;2024-02-23T04:01:13;9.00;77.60
43320;DHT22;28914;48.722;9.332;2024-02-23T04:06:33;9.00;77.90
43320;DHT22;28914;48.722;9.332;2024-02-23T04:11:52;8.90;77.90
43320;DHT22;28914;48.722;9.332;2024-02-23T04:17:11;8.80;77.90
43320;DHT22;28914;48.722;9.332;2024-02-23T04:22:31;8.80;78.00
43320;DHT22;28914;48.722;9.332;2024-02-23T04:27:50;8.80;78.20
43320;DHT22;28914;48.722;9.332;2024-02-23T04:33:09;8.70;78.30
43320;DHT22;28914;48.722;9.332;2024-02-23T04:38:29;8.60;78.40
43320;DHT22;28914;48.722;9.332;2024-02-23T04:43:49;8.60;78.50
43320;DHT22;28914;48.722;9.332;2024-02-23T04:49:08;8.50;78.50
43320;DHT22;28914;48.722;9.332;2024-02-23T04:54:27;8.50;78.60
43320;DHT22;28914;48.722;9.332;2024-02-23T04:59:46;8.40;78.80
43320;DHT22;28914;48.722;9.332;2024-02-23T05:05:06;8.40;78.90
43320;DHT22;28914;48.722;9.332;2024-02-23T05:10:25;8.30;80.00
43320;DHT22;28914;48.722;9.332;2024-02-23T05:15:45;8.20;79.20
43320;DHT22;28914;48.722;9.332;2024-02-23T05:21:04;8.20;79.40
43320;DHT22;28914;48.722;9.332;2024-02-23T05:26:24;8.10;79.50
43320;DHT22;28914;48.722;9.332;2024-02-23T05:31:45;8.00;79.60
43320;DHT22;28914;48.722;9.332;2024-02-23T05:37:05;8.00;79.50
43320;DHT22;28914;48.722;9.332;2024-02-23T05:42:24;8.00;79.80
43320;DHT22;28914;48.722;9.332;2024-02-23T05:47:43;8.00;79.70
43320;DHT22;28914;48.722;9.332;2024-02-23T05:53:02;8.00;79.70
43320;DHT22;28914;48.722;9.332;2024-02-23T05:58:23;8.00;79.70
43320;DHT22;28914;48.722;9.332;2024-02-23T06:03:43;8.00;79.70
43320;DHT22;28914;48.722;9.332;2024-02-23T06:09:03;8.00;79.80
43320;DHT22;28914;48.722;9.332;2024-02-23T06:14:22;8.00;80.30
43320;DHT22;28914;48.722;9.332;2024-02-23T06:19:42;8.00;80.50
43320;DHT22;28914;48.722;9.332;2024-02-23T06:25:02;7.90;80.20
43320;DHT22;28914;48.722;9.332;2024-02-23T06:30:21;7.90;80.20
43320;DHT22;28914;48.722;9.332;2024-02-23T06:35:41;7.90;80.10
43320;DHT22;28914;48.722;9.332;2024-02-23T06:41:01;7.80;80.10
43320;DHT22;28914;48.722;9.332;2024-02-23T06:46:20;7.80;80.20
43320;DHT22;28914;48.722;9.332;2024-02-23T06:51:39;7.70;80.10
43320;DHT22;28914;48.722;9.332;2024-02-23T06:57:00;7.70;80.30
43320;DHT22;28914;48.722;9.332;2024-02-23T07:02:19;7.70;80.50
43320;DHT22;28914;48.722;9.332;2024-02-23T07:07:39;7.80;80.70
43320;DHT22;28914;48.722;9.332;2024-02-23T07:12:59;7.70;80.70
43320;DHT22;28914;48.722;9.332;2024-02-23T07:18:18;7.80;80.90
43320;DHT22;28914;48.722;9.332;2024-02-23T07:23:38;7.80;80.80
43320;DHT22;28914;48.722;9.332;2024-02-23T07:28:57;7.80;81.00
43320;DHT22;28914;48.722;9.332;2024-02-23T07:34:16;7.90;81.00
43320;DHT22;28914;48.722;9.332;2024-02-23T07:39:35;8.00;81.70
43320;DHT22;28914;48.722;9.332;2024-02-23T07:44:55;8.00;81.70
43320;DHT22;28914;48.722;9.332;2024-02-23T07:50:15;8.20;81.90
43320;DHT22;28914;48.722;9.332;2024-02-23T07:55:35;8.30;81.60
43320;DHT22;28914;48.722;9.332;2024-02-23T08:00:54;8.50;81.50
43320;DHT22;28914;48.722;9.332;2024-02-23T08:06:13;8.60;81.60
43320;DHT22;28914;48.722;9.332;2024-02-23T08:11:32;8.80;81.50
43320;DHT22;28914;48.722;9.332;2024-02-23T08:16:52;9.00;81.20
43320;DHT22;28914;48.722;9.332;2024-02-23T08:22:11;9.10;81.00
43320;DHT22;28914;48.722;9.332;2024-02-23T08:27:30;9.20;80.60
43320;DHT22;28914;48.722;9.332;2024-02-23T08:32:49;9.40;80.60
43320;DHT22;28914;48.722;9.332;2024-02-23T08:38:08;9.60;80.30
43320;DHT22;28914;48.722;9.332;2024-02-23T08:43:28;9.70;79.80
43320;DHT22;28914;48.722;9.332;2024-02-23T08:48:47;9.80;78.90
43320;DHT22;28914;48.722;9.332;2024-02-23T08:54:06;9.90;78.00
43320;DHT22;28914;48.722;9.332;2024-02-23T08:59:26;10.10;76.30
43320;DHT22;28914;48.722;9.332;2024-02-23T09:04:46;10.20;75.60
43320;DHT22;28914;48.722;9.332;2024-02-23T09:10:05;10.30;73.80
43320;DHT22;28914;48.722;9.332;2024-02-23T09:15:24;10.30;74.30
43320;DHT22;28914;48.722;9.332;2024-02-23T09:20:43;10.50;74.40
43320;DHT22;28914;48.722;9.332;2024-02-23T09:26:09;10.60;73.50
43320;DHT22;28914;48.722;9.332;2024-02-23T09:31:30;10.70;73.30
43320;DHT22;28914;48.722;9.332;2024-02-23T09:36:50;10.90;72.90
43320;DHT22;28914;48.722;9.332;2024-02-23T09:42:10;11.10;73.50
43320;DHT22;28914;48.722;9.332;2024-02-23T09:47:32;11.20;71.70
43320;DHT22;28914;48.722;9.332;2024-02-23T09:52:51;11.40;72.10
43320;DHT22;28914;48.722;9.332;2024-02-23T09:58:12;11.70;69.50
43320;DHT22;28914;48.722;9.332;2024-02-23T10:03:32;12.00;69.00
43320;DHT22;28914;48.722;9.332;2024-02-23T10:08:52;12.60;70.60
43320;DHT22;28914;48.722;9.332;2024-02-23T10:14:12;13.20;69.00
43320;DHT22;28914;48.722;9.332;2024-02-23T10:19:33;13.80;66.50
43320;DHT22;28914;48.722;9.332;2024-02-23T10:24:53;13.90;61.70
43320;DHT22;28914;48.722;9.332;2024-02-23T10:30:13;13.80;61.60
43320;DHT22;28914;48.722;9.332;2024-02-23T10:35:36;13.60;60.60
43320;DHT22;28914;48.722;9.332;2024-02-23T10:41:02;13.40;59.40
43320;DHT22;28914;48.722;9.332;2024-02-23T10:46:22;13.30;60.00
43320;DHT22;28914;48.722;9.332;2024-02-23T10:51:42;13.20;57.40
43320;DHT22;28914;48.722;9.332;2024-02-23T10:57:03;13.10;58.80
43320;DHT22;28914;48.722;9.332;2024-02-23T11:02:23;13.00;59.60
43320;DHT22;28914;48.722;9.332;2024-02-23T11:07:46;13.00;58.50
43320;DHT22;28914;48.722;9.332;2024-02-23T11:13:08;13.10;58.60
43320;DHT22;28914;48.722;9.332;2024-02-23T11:18:28;13.10;58.50
43320;DHT22;28914;48.722;9.332;2024-02-23T11:23:48;13.10;58.30
43320;DHT22;28914;48.722;9.332;2024-02-23T11:29:12;13.10;57.40
43320;DHT22;28914;48.722;9.332;2024-02-23T11:34:34;12.90;56.20
43320;DHT22;28914;48.722;9.332;2024-02-23T11:39:53;12.80;57.90
43320;DHT22;28914;48.722;9.332;2024-02-23T11:45:13;12.80;58.30
43320;DHT22;28914;48.722;9.332;2024-02-23T11:50:32;12.80;59.20
43320;DHT22;28914;48.722;9.332;2024-02-23T11:55:52;12.80;57.70
43320;DHT22;28914;48.722;9.332;2024-02-23T12:01:12;12.80;57.10
43320;DHT22;28914;48.722;9.332;2024-02-23T12:06:31;12.80;57.30
43320;DHT22;28914;48.722;9.332;2024-02-23T12:11:52;12.80;57.40
43320;DHT22;28914;48.722;9.332;2024-02-23T12:17:11;12.90;56.60
43320;DHT22;28914;48.722;9.332;2024-02-23T12:22:30;12.90;57.60
43320;DHT22;28914;48.722;9.332;2024-02-23T12:27:56;12.90;55.80
43320;DHT22;28914;48.722;9.332;2024-02-23T12:33:20;12.90;55.70
43320;DHT22;28914;48.722;9.332;2024-02-23T12:38:39;12.90;57.50
43320;DHT22;28914;48.722;9.332;2024-02-23T12:43:59;13.00;56.90
43320;DHT22;28914;48.722;9.332;2024-02-23T12:49:18;13.00;56.60
43320;DHT22;28914;48.722;9.332;2024-02-23T12:54:37;13.00;57.70
43320;DHT22;28914;48.722;9.332;2024-02-23T12:59:56;13.10;58.60
43320;DHT22;28914;48.722;9.332;2024-02-23T13:05:15;13.20;57.50
43320;DHT22;28914;48.722;9.332;2024-02-23T13:10:34;13.30;57.30
43320;DHT22;28914;48.722;9.332;2024-02-23T13:15:54;13.50;57.60
43320;DHT22;28914;48.722;9.332;2024-02-23T13:21:14;13.70;57.50
43320;DHT22;28914;48.722;9.332;2024-02-23T13:26:33;13.60;56.20
43320;DHT22;28914;48.722;9.332;2024-02-23T13:31:53;13.60;56.10
43320;DHT22;28914;48.722;9.332;2024-02-23T13:37:12;13.60;57.40
43320;DHT22;28914;48.722;9.332;2024-02-23T13:42:31;13.70;57.10
43320;DHT22;28914;48.722;9.332;2024-02-23T13:48:02;13.70;57.20
43320;DHT22;28914;48.722;9.332;2024-02-23T13:53:22;13.80;57.20
43320;DHT22;28914;48.722;9.332;2024-02-23T13:58:41;13.80;58.00
43320;DHT22;28914;48.722;9.332;2024-02-23T14:04:06;13.90;57.30
43320;DHT22;28914;48.722;9.332;2024-02-23T14:09:25;14.00;57.20
43320;DHT22;28914;48.722;9.332;2024-02-23T14:14:44;14.00;56.60
43320;DHT22;28914;48.722;9.332;2024-02-23T14:20:04;14.00;55.70
43320;DHT22;28914;48.722;9.332;2024-02-23T14:25:23;13.80;55.60
43320;DHT22;28914;48.722;9.332;2024-02-23T14:30:42;13.70;55.30
43320;DHT22;28914;48.722;9.332;2024-02-23T14:36:01;13.60;56.50
43320;DHT22;28914;48.722;9.332;2024-02-23T14:41:21;13.60;56.50
43320;DHT22;28914;48.722;9.332;2024-02-23T14:46:40;13.50;56.20
43320;DHT22;28914;48.722;9.332;2024-02-23T14:51:59;13.50;56.10
43320;DHT22;28914;48.722;9.332;2024-02-23T14:57:19;13.50;56.20
43320;DHT22;28914;48.722;9.332;2024-02-23T15:02:38;13.60;55.80
43320;DHT22;28914;48.722;9.332;2024-02-23T15:07:58;13.50;55.60
43320;DHT22;28914;48.722;9.332;2024-02-23T15:13:18;13.50;55.90
43320;DHT22;28914;48.722;9.332;2024-02-23T15:18:38;13.50;56.20
43320;DHT22;28914;48.722;9.332;2024-02-23T15:23:57;13.40;56.00
43320;DHT22;28914;48.722;9.332;2024-02-23T15:29:17;13.30;56.50
43320;DHT22;28914;48.722;9.332;2024-02-23T15:34:37;13.30;56.40
43320;DHT22;28914;48.722;9.332;2024-02-23T15:39:56;13.30;57.10
43320;DHT22;28914;48.722;9.332;2024-02-23T15:45:15;13.30;56.90
43320;DHT22;28914;48.722;9.332;2024-02-23T15:50:34;13.30;57.10
43320;DHT22;28914;48.722;9.332;2024-02-23T15:55:53;13.30;56.90
43320;DHT22;28914;48.722;9.332;2024-02-23T16:01:12;13.20;56.20
43320;DHT22;28914;48.722;9.332;2024-02-23T16:06:32;13.20;56.20
43320;DHT22;28914;48.722;9.332;2024-02-23T16:11:54;13.00;56.10
43320;DHT22;28914;48.722;9.332;2024-02-23T16:17:13;12.90;56.80
43320;DHT22;28914;48.722;9.332;2024-02-23T16:22:32;12.80;57.00
43320;DHT22;28914;48.722;9.332;2024-02-23T16:27:52;12.70;56.90
43320;DHT22;28914;48.722;9.332;2024-02-23T16:33:11;12.60;57.40
43320;DHT22;28914;48.722;9.332;2024-02-23T16:38:30;12.60;57.60
43320;DHT22;28914;48.722;9.332;2024-02-23T16:43:49;12.50;58.10
43320;DHT22;28914;48.722;9.332;2024-02-23T16:49:08;12.40;58.60
43320;DHT22;28914;48.722;9.332;2024-02-23T16:54:28;12.40;58.90
43320;DHT22;28914;48.722;9.332;2024-02-23T16:59:47;12.30;59.20
43320;DHT22;28914;48.722;9.332;2024-02-23T17:05:07;12.30;59.40
43320;DHT22;28914;48.722;9.332;2024-02-23T17:10:27;12.20;59.90
43320;DHT22;28914;48.722;9.332;2024-02-23T17:15:46;12.10;60.00
43320;DHT22;28914;48.722;9.332;2024-02-23T17:21:05;12.00;60.20
43320;DHT22;28914;48.722;9.332;2024-02-23T17:26:25;11.90;60.50
43320;DHT22;28914;48.722;9.332;2024-02-23T17:31:44;11.70;60.80
43320;DHT22;28914;48.722;9.332;2024-02-23T17:37:03;11.60;61.10
43320;DHT22;28914;48.722;9.332;2024-02-23T17:42:25;11.60;61.20
43320;DHT22;28914;48.722;9.332;2024-02-23T17:47:45;11.40;61.30
43320;DHT22;28914;48.722;9.332;2024-02-23T17:53:04;11.30;61.50
43320;DHT22;28914;48.722;9.332;2024-02-23T17:58:26;11.30;61.80
43320;DHT22;28914;48.722;9.332;2024-02-23T18:03:45;11.10;62.00
43320;DHT22;28914;48.722;9.332;2024-02-23T18:09:05;11.00;61.70
43320;DHT22;28914;48.722;9.332;2024-02-23T18:14:24;11.00;61.50
43320;DHT22;28914;48.722;9.332;2024-02-23T18:19:43;10.90;62.40
43320;DHT22;28914;48.722;9.332;2024-02-23T18:25:03;10.80;61.60
43320;DHT22;28914;48.722;9.332;2024-02-23T18:30:22;10.70;61.60
43320;DHT22;28914;48.722;9.332;2024-02-23T18:35:41;10.60;61.90
43320;DHT22;28914;48.722;9.332;2024-02-23T18:41:00;10.50;62.00
43320;DHT22;28914;48.722;9.332;2024-02-23T18:46:22;10.40;62.30
43320;DHT22;28914;48.722;9.332;2024-02-23T18:51:41;10.20;62.50
43320;DHT22;28914;48.722;9.332;2024-02-23T18:57:00;10.10;62.70
43320;DHT22;28914;48.722;9.332;2024-02-23T19:02:20;9.90;62.90
43320;DHT22;28914;48.722;9.332;2024-02-23T19:07:39;9.70;63.20
43320;DHT22;28914;48.722;9.332;2024-02-23T19:12:58;9.60;63.60
43320;DHT22;28914;48.722;9.332;2024-02-23T19:18:18;9.30;64.10
43320;DHT22;28914;48.722;9.332;2024-02-23T19:23:38;9.10;64.30
43320;DHT22;28914;48.722;9.332;2024-02-23T19:28:58;8.80;64.70
43320;DHT22;28914;48.722;9.332;2024-02-23T19:34:17;8.60;64.80
43320;DHT22;28914;48.722;9.332;2024-02-23T19:39:36;8.40;65.10
43320;DHT22;28914;48.722;9.332;2024-02-23T19:44:55;8.30;65.50
43320;DHT22;28914;48.722;9.332;2024-02-23T19:50:15;8.10;66.00
43320;DHT22;28914;48.722;9.332;2024-02-23T19:55:35;8.00;66.50
43320;DHT22;28914;48.722;9.332;2024-02-23T20:00:55;7.80;66.90
43320;DHT22;28914;48.722;9.332;2024-02-23T20:06:15;7.70;67.00
43320;DHT22;28914;48.722;9.332;2024-02-23T20:11:34;7.50;67.00
43320;DHT22;28914;48.722;9.332;2024-02-23T20:16:53;7.40;67.20
43320;DHT22;28914;48.722;9.332;2024-02-23T20:22:12;7.30;67.50
43320;DHT22;28914;48.722;9.332;2024-02-23T20:27:35;7.20;67.50
43320;DHT22;28914;48.722;9.332;2024-02-23T20:32:54;7.10;67.70
43320;DHT22;28914;48.722;9.332;2024-02-23T20:38:13;7.00;68.10
43320;DHT22;28914;48.722;9.332;2024-02-23T20:43:33;6.90;68.20
43320;DHT22;28914;48.722;9.332;2024-02-23T20:48:53;6.70;68.40
43320;DHT22;28914;48.722;9.332;2024-02-23T20:54:12;6.70;68.70
43320;DHT22;28914;48.722;9.332;2024-02-23T20:59:32;6.60;69.00
43320;DHT22;28914;48.722;9.332;2024-02-23T21:04:52;6.50;69.30
43320;DHT22;28914;48.722;9.332;2024-02-23T21:10:13;6.40;69.30
43320;DHT22;28914;48.722;9.332;2024-02-23T21:15:34;6.30;69.60
43320;DHT22;28914;48.722;9.332;2024-02-23T21:20:55;6.20;69.80
43320;DHT22;28914;48.722;9.332;2024-02-23T21:26:16;6.20;69.80
43320;DHT22;28914;48.722;9.332;2024-02-23T21:31:35;6.00;70.00
43320;DHT22;28914;48.722;9.332;2024-02-23T21:36:55;6.00;70.20
43320;DHT22;28914;48.722;9.332;2024-02-23T21:42:14;5.90;70.30
43320;DHT22;28914;48.722;9.332;2024-02-23T21:47:33;5.80;70.50
43320;DHT22;28914;48.722;9.332;2024-02-23T21:52:53;5.80;70.50
43320;DHT22;28914;48.722;9.332;2024-02-23T21:58:12;5.70;70.80
43320;DHT22;28914;48.722;9.332;2024-02-23T22:03:31;5.60;71.30
43320;DHT22;28914;48.722;9.332;2024-02-23T22:08:51;5.60;71.10
43320;DHT22;28914;48.722;9.332;2024-02-23T22:14:10;5.50;71.20
43320;DHT22;28914;48.722;9.332;2024-02-23T22:19:30;5.40;71.20
43320;DHT22;28914;48.722;9.332;2024-02-23T22:24:49;5.40;72.30
43320;DHT22;28914;48.722;9.332;2024-02-23T22:30:09;5.30;71.60
43320;DHT22;28914;48.722;9.332;2024-02-23T22:35:29;5.30;71.70
43320;DHT22;28914;48.722;9.332;2024-02-23T22:40:48;5.20;71.80
43320;DHT22;28914;48.722;9.332;2024-02-23T22:46:07;5.20;72.10
43320;DHT22;28914;48.722;9.332;2024-02-23T22:51:26;5.10;72.20
43320;DHT22;28914;48.722;9.332;2024-02-23T22:56:45;5.10;72.60
43320;DHT22;28914;48.722;9.332;2024-02-23T23:02:04;5.00;72.90
43320;DHT22;28914;48.722;9.332;2024-02-23T23:07:24;5.00;73.00
43320;DHT22;28914;48.722;9.332;2024-02-23T23:12:44;4.90;73.00
43320;DHT22;28914;48.722;9.332;2024-02-23T23:18:03;4.90;73.20
43320;DHT22;28914;48.722;9.332;2024-02-23T23:23:22;4.80;73.10
43320;DHT22;28914;48.722;9.332;2024-02-23T23:28:42;4.80;73.20
43320;DHT22;28914;48.722;9.332;2024-02-23T23:34:01;4.80;73.60
43320;DHT22;28914;48.722;9.332;2024-02-23T23:39:20;4.80;73.80
43320;DHT22;28914;48.722;9.332;2024-02-23T23:44:39;4.80;74.00
43320;DHT22;28914;48.722;9.332;2024-02-23T23:49:59;4.90;74.00
43320;DHT22;28914;48.722;9.332;2024-02-23T23:55:18;4.90;74.30
